Terminal Aerodrome Forecast
Issued by NWS

Home | Current Version | Previous Version | Text Only | Print | Product List | Glossary On
Versions: 1 2 3 4 5 6 7 8 9 10 11 12 13 14 15 16 17 18 19 20 21 22 23 24 25 26
000
FTUS46 KOTX 221739
TAFMWH
TAF
KMWH 221739Z 2218/2318 VRB05KT P6SM VCSH SCT090
     FM222100 21007KT P6SM FEW120 SCT200
      TEMPO 2222/2302 VRB12G26KT P6SM -TSRA OVC060CB
     FM230200 24010KT P6SM VCTS SCT080CB BKN120
     FM230500 26008KT P6SM VCSH BKN100 BKN200=

USA.gov is the U.S. government's official web portal to all federal, state and local government web resources and services.